sensor_id;sensor_type;location;lat;lon;timestamp;pressure;altitude;pressure_sealevel;temperature;humidity
70841;BME280;58465;51.534;9.934;2023-02-28T00:00:23;101378.22;;;1.41;54.39
70841;BME280;58465;51.534;9.934;2023-02-28T00:02:48;101364.59;;;1.53;53.66
70841;BME280;58465;51.534;9.934;2023-02-28T00:05:16;101365.69;;;1.59;53.63
70841;BME280;58465;51.534;9.934;2023-02-28T00:07:42;101373.66;;;1.61;53.87
70841;BME280;58465;51.534;9.934;2023-02-28T00:10:09;101370.06;;;1.59;54.03
70841;BME280;58465;51.534;9.934;2023-02-28T00:12:36;101370.31;;;1.66;53.81
70841;BME280;58465;51.534;9.934;2023-02-28T00:15:05;101355.34;;;1.65;53.66
70841;BME280;58465;51.534;9.934;2023-02-28T00:17:31;101370.44;;;1.69;53.28
70841;BME280;58465;51.534;9.934;2023-02-28T00:19:57;101364.25;;;1.69;53.34
70841;BME280;58465;51.534;9.934;2023-02-28T00:22:26;101374.81;;;1.69;53.15
70841;BME280;58465;51.534;9.934;2023-02-28T00:24:52;101367.84;;;1.71;53.40
70841;BME280;58465;51.534;9.934;2023-02-28T00:27:17;101366.19;;;1.74;53.37
70841;BME280;58465;51.534;9.934;2023-02-28T00:29:42;101363.63;;;1.76;52.96
70841;BME280;58465;51.534;9.934;2023-02-28T00:32:07;101367.22;;;1.78;52.88
70841;BME280;58465;51.534;9.934;2023-02-28T00:34:33;101362.84;;;1.78;53.16
70841;BME280;58465;51.534;9.934;2023-02-28T00:37:03;101369.84;;;1.78;53.15
70841;BME280;58465;51.534;9.934;2023-02-28T00:39:29;101376.78;;;1.76;53.35
70841;BME280;58465;51.534;9.934;2023-02-28T00:41:54;101375.06;;;1.76;53.15
70841;BME280;58465;51.534;9.934;2023-02-28T00:44:20;101371.59;;;1.77;53.80
70841;BME280;58465;51.534;9.934;2023-02-28T00:46:46;101374.22;;;1.77;53.50
70841;BME280;58465;51.534;9.934;2023-02-28T00:49:12;101361.69;;;1.70;54.00
70841;BME280;58465;51.534;9.934;2023-02-28T00:51:37;101366.59;;;1.60;54.77
70841;BME280;58465;51.534;9.934;2023-02-28T00:54:02;101373.38;;;1.53;55.04
70841;BME280;58465;51.534;9.934;2023-02-28T00:56:28;101374.28;;;1.54;55.53
70841;BME280;58465;51.534;9.934;2023-02-28T00:58:53;101375.97;;;1.52;55.54
70841;BME280;58465;51.534;9.934;2023-02-28T01:01:18;101379.44;;;1.51;55.95
70841;BME280;58465;51.534;9.934;2023-02-28T01:03:43;101381.09;;;1.48;56.18
70841;BME280;58465;51.534;9.934;2023-02-28T01:06:09;101373.16;;;1.47;56.00
70841;BME280;58465;51.534;9.934;2023-02-28T01:08:34;101367.03;;;1.48;56.52
70841;BME280;58465;51.534;9.934;2023-02-28T01:11:07;101375.69;;;1.44;56.86
70841;BME280;58465;51.534;9.934;2023-02-28T01:13:33;101374.00;;;1.46;56.60
70841;BME280;58465;51.534;9.934;2023-02-28T01:15:58;101373.94;;;1.44;56.91
70841;BME280;58465;51.534;9.934;2023-02-28T01:18:24;101363.41;;;1.44;56.81
70841;BME280;58465;51.534;9.934;2023-02-28T01:20:49;101358.19;;;1.46;57.02
70841;BME280;58465;51.534;9.934;2023-02-28T01:23:16;101358.25;;;1.47;57.10
70841;BME280;58465;51.534;9.934;2023-02-28T01:25:41;101356.38;;;1.43;56.85
70841;BME280;58465;51.534;9.934;2023-02-28T01:28:07;101360.75;;;1.44;56.65
70841;BME280;58465;51.534;9.934;2023-02-28T01:30:32;101356.25;;;1.40;56.88
70841;BME280;58465;51.534;9.934;2023-02-28T01:32:58;101348.34;;;1.40;56.81
70841;BME280;58465;51.534;9.934;2023-02-28T01:35:23;101353.63;;;1.40;56.84
70841;BME280;58465;51.534;9.934;2023-02-28T01:37:48;101350.66;;;1.31;56.99
70841;BME280;58465;51.534;9.934;2023-02-28T01:40:14;101353.19;;;1.28;56.97
70841;BME280;58465;51.534;9.934;2023-02-28T01:42:39;101354.00;;;1.27;57.24
70841;BME280;58465;51.534;9.934;2023-02-28T01:45:19;101348.66;;;1.24;57.27
70841;BME280;58465;51.534;9.934;2023-02-28T01:47:46;101358.28;;;1.24;57.56
70841;BME280;58465;51.534;9.934;2023-02-28T01:50:18;101355.69;;;1.25;57.21
70841;BME280;58465;51.534;9.934;2023-02-28T01:52:45;101343.28;;;1.21;57.23
70841;BME280;58465;51.534;9.934;2023-02-28T01:55:12;101342.25;;;1.18;57.08
70841;BME280;58465;51.534;9.934;2023-02-28T01:57:43;101349.25;;;1.17;57.41
70841;BME280;58465;51.534;9.934;2023-02-28T02:00:13;101350.22;;;1.19;57.00
70841;BME280;58465;51.534;9.934;2023-02-28T02:02:41;101335.31;;;1.20;57.18
70841;BME280;58465;51.534;9.934;2023-02-28T02:05:18;101341.66;;;1.25;57.44
70841;BME280;58465;51.534;9.934;2023-02-28T02:07:46;101338.47;;;1.33;56.94
70841;BME280;58465;51.534;9.934;2023-02-28T02:15:34;101333.41;;;1.39;56.31
70841;BME280;58465;51.534;9.934;2023-02-28T02:18:07;101325.63;;;1.42;56.42
70841;BME280;58465;51.534;9.934;2023-02-28T02:25:56;101340.13;;;1.31;56.73
70841;BME280;58465;51.534;9.934;2023-02-28T02:31:37;101322.94;;;1.17;56.45
70841;BME280;58465;51.534;9.934;2023-02-28T02:37:29;101333.31;;;1.13;56.39
70841;BME280;58465;51.534;9.934;2023-02-28T02:40:21;101325.63;;;1.19;55.93
70841;BME280;58465;51.534;9.934;2023-02-28T02:45:25;101332.81;;;1.23;55.49
70841;BME280;58465;51.534;9.934;2023-02-28T02:47:54;101331.28;;;1.29;55.48
70841;BME280;58465;51.534;9.934;2023-02-28T02:50:24;101326.13;;;1.32;54.95
70841;BME280;58465;51.534;9.934;2023-02-28T02:52:55;101325.50;;;1.39;54.81
70841;BME280;58465;51.534;9.934;2023-02-28T02:55:22;101323.75;;;1.40;54.59
70841;BME280;58465;51.534;9.934;2023-02-28T02:57:58;101329.28;;;1.47;54.27
70841;BME280;58465;51.534;9.934;2023-02-28T03:00:28;101323.19;;;1.48;54.39
70841;BME280;58465;51.534;9.934;2023-02-28T03:02:56;101325.19;;;1.56;54.04
70841;BME280;58465;51.534;9.934;2023-02-28T03:05:50;101326.31;;;1.62;53.79
70841;BME280;58465;51.534;9.934;2023-02-28T03:08:15;101315.00;;;1.66;53.81
70841;BME280;58465;51.534;9.934;2023-02-28T03:10:46;101325.78;;;1.74;53.52
70841;BME280;58465;51.534;9.934;2023-02-28T03:13:27;101324.16;;;1.77;53.34
70841;BME280;58465;51.534;9.934;2023-02-28T03:16:28;101328.47;;;1.75;53.10
70841;BME280;58465;51.534;9.934;2023-02-28T03:24:32;101328.59;;;1.78;52.00
70841;BME280;58465;51.534;9.934;2023-02-28T03:27:07;101325.31;;;1.85;52.13
70841;BME280;58465;51.534;9.934;2023-02-28T03:29:49;101327.41;;;1.96;51.68
70841;BME280;58465;51.534;9.934;2023-02-28T03:32:24;101329.06;;;1.92;51.28
70841;BME280;58465;51.534;9.934;2023-02-28T03:35:12;101338.53;;;1.87;51.00
70841;BME280;58465;51.534;9.934;2023-02-28T03:37:41;101334.34;;;1.92;50.76
70841;BME280;58465;51.534;9.934;2023-02-28T03:40:17;101326.50;;;1.95;50.82
70841;BME280;58465;51.534;9.934;2023-02-28T03:42:46;101329.34;;;2.01;50.57
70841;BME280;58465;51.534;9.934;2023-02-28T03:45:16;101333.25;;;2.14;50.31
70841;BME280;58465;51.534;9.934;2023-02-28T03:48:07;101332.28;;;2.10;49.54
70841;BME280;58465;51.534;9.934;2023-02-28T03:50:39;101329.53;;;2.07;50.05
70841;BME280;58465;51.534;9.934;2023-02-28T03:53:14;101320.56;;;2.01;50.13
70841;BME280;58465;51.534;9.934;2023-02-28T03:55:59;101327.56;;;2.00;49.59
70841;BME280;58465;51.534;9.934;2023-02-28T03:58:35;101324.47;;;2.13;49.50
70841;BME280;58465;51.534;9.934;2023-02-28T04:01:16;101324.41;;;2.12;50.11
70841;BME280;58465;51.534;9.934;2023-02-28T04:03:43;101328.47;;;2.02;51.65
70841;BME280;58465;51.534;9.934;2023-02-28T04:06:15;101329.00;;;1.91;52.73
70841;BME280;58465;51.534;9.934;2023-02-28T04:08:41;101331.47;;;1.86;52.96
70841;BME280;58465;51.534;9.934;2023-02-28T04:11:17;101338.41;;;1.82;53.94
70841;BME280;58465;51.534;9.934;2023-02-28T04:13:43;101332.13;;;1.79;54.43
70841;BME280;58465;51.534;9.934;2023-02-28T04:16:09;101338.34;;;1.81;54.80
70841;BME280;58465;51.534;9.934;2023-02-28T04:18:38;101342.53;;;1.76;54.90
70841;BME280;58465;51.534;9.934;2023-02-28T04:21:05;101339.78;;;1.71;54.89
70841;BME280;58465;51.534;9.934;2023-02-28T04:23:30;101338.34;;;1.81;54.69
70841;BME280;58465;51.534;9.934;2023-02-28T04:25:56;101340.13;;;1.82;54.71
70841;BME280;58465;51.534;9.934;2023-02-28T04:28:21;101337.69;;;1.88;54.57
70841;BME280;58465;51.534;9.934;2023-02-28T04:30:46;101340.28;;;1.86;54.49
70841;BME280;58465;51.534;9.934;2023-02-28T04:33:12;101338.72;;;1.93;54.46
70841;BME280;58465;51.534;9.934;2023-02-28T04:35:37;101338.72;;;1.93;54.68
70841;BME280;58465;51.534;9.934;2023-02-28T04:38:02;101344.06;;;1.95;54.55
70841;BME280;58465;51.534;9.934;2023-02-28T04:40:28;101341.59;;;1.99;54.67
70841;BME280;58465;51.534;9.934;2023-02-28T04:42:53;101342.44;;;1.98;54.72
70841;BME280;58465;51.534;9.934;2023-02-28T04:45:18;101347.22;;;2.10;54.30
70841;BME280;58465;51.534;9.934;2023-02-28T04:47:44;101341.72;;;2.04;53.46
70841;BME280;58465;51.534;9.934;2023-02-28T04:50:09;101334.88;;;2.09;53.37
70841;BME280;58465;51.534;9.934;2023-02-28T04:52:35;101349.00;;;2.11;53.46
70841;BME280;58465;51.534;9.934;2023-02-28T04:55:00;101347.22;;;2.10;53.02
70841;BME280;58465;51.534;9.934;2023-02-28T04:57:25;101348.09;;;2.10;52.83
70841;BME280;58465;51.534;9.934;2023-02-28T04:59:50;101342.00;;;2.11;52.45
70841;BME280;58465;51.534;9.934;2023-02-28T05:02:15;101342.97;;;2.15;52.29
70841;BME280;58465;51.534;9.934;2023-02-28T05:04:41;101345.69;;;2.18;51.81
70841;BME280;58465;51.534;9.934;2023-02-28T05:07:06;101336.84;;;2.16;51.44
70841;BME280;58465;51.534;9.934;2023-02-28T05:09:31;101348.47;;;2.22;51.54
70841;BME280;58465;51.534;9.934;2023-02-28T05:11:58;101344.31;;;2.29;51.25
70841;BME280;58465;51.534;9.934;2023-02-28T05:14:23;101347.84;;;2.31;50.95
70841;BME280;58465;51.534;9.934;2023-02-28T05:16:48;101348.88;;;2.35;50.93
70841;BME280;58465;51.534;9.934;2023-02-28T05:19:13;101345.28;;;2.33;51.08
70841;BME280;58465;51.534;9.934;2023-02-28T05:21:50;101345.44;;;2.37;50.86
70841;BME280;58465;51.534;9.934;2023-02-28T05:24:16;101342.03;;;2.41;50.88
70841;BME280;58465;51.534;9.934;2023-02-28T05:26:47;101349.03;;;2.41;50.35
70841;BME280;58465;51.534;9.934;2023-02-28T05:29:13;101349.16;;;2.44;50.54
70841;BME280;58465;51.534;9.934;2023-02-28T05:31:38;101346.41;;;2.41;50.62
70841;BME280;58465;51.534;9.934;2023-02-28T05:34:04;101350.09;;;2.46;50.59
70841;BME280;58465;51.534;9.934;2023-02-28T05:36:29;101344.81;;;2.46;50.12
70841;BME280;58465;51.534;9.934;2023-02-28T05:38:54;101355.44;;;2.47;50.42
70841;BME280;58465;51.534;9.934;2023-02-28T05:41:20;101354.44;;;2.44;50.50
70841;BME280;58465;51.534;9.934;2023-02-28T05:43:46;101353.53;;;2.43;50.31
70841;BME280;58465;51.534;9.934;2023-02-28T05:46:12;101361.59;;;2.48;50.32
70841;BME280;58465;51.534;9.934;2023-02-28T05:48:39;101359.00;;;2.49;50.32
70841;BME280;58465;51.534;9.934;2023-02-28T05:51:06;101366.03;;;2.50;50.40
70841;BME280;58465;51.534;9.934;2023-02-28T05:53:32;101362.50;;;2.48;49.91
70841;BME280;58465;51.534;9.934;2023-02-28T05:55:58;101362.63;;;2.53;49.93
70841;BME280;58465;51.534;9.934;2023-02-28T05:58:23;101360.81;;;2.52;49.91
70841;BME280;58465;51.534;9.934;2023-02-28T06:00:54;101355.72;;;2.56;49.45
70841;BME280;58465;51.534;9.934;2023-02-28T06:03:19;101359.28;;;2.58;49.55
70841;BME280;58465;51.534;9.934;2023-02-28T06:05:44;101366.25;;;2.56;49.38
70841;BME280;58465;51.534;9.934;2023-02-28T06:08:10;101361.81;;;2.55;49.35
70841;BME280;58465;51.534;9.934;2023-02-28T06:10:35;101369.84;;;2.58;49.40
70841;BME280;58465;51.534;9.934;2023-02-28T06:13:01;101369.78;;;2.57;49.20
70841;BME280;58465;51.534;9.934;2023-02-28T06:15:27;101378.78;;;2.64;49.20
70841;BME280;58465;51.534;9.934;2023-02-28T06:17:53;101379.78;;;2.67;48.95
70841;BME280;58465;51.534;9.934;2023-02-28T06:20:18;101372.78;;;2.69;48.95
70841;BME280;58465;51.534;9.934;2023-02-28T06:22:43;101375.19;;;2.61;48.80
70841;BME280;58465;51.534;9.934;2023-02-28T06:25:09;101380.66;;;2.68;48.95
70841;BME280;58465;51.534;9.934;2023-02-28T06:27:35;101387.81;;;2.72;48.86
70841;BME280;58465;51.534;9.934;2023-02-28T06:30:00;101381.75;;;2.74;48.68
70841;BME280;58465;51.534;9.934;2023-02-28T06:32:26;101380.13;;;2.79;48.73
70841;BME280;58465;51.534;9.934;2023-02-28T06:34:51;101375.72;;;2.78;48.20
70841;BME280;58465;51.534;9.934;2023-02-28T06:37:17;101380.91;;;2.75;48.57
70841;BME280;58465;51.534;9.934;2023-02-28T06:39:43;101388.59;;;2.69;48.56
70841;BME280;58465;51.534;9.934;2023-02-28T06:42:08;101388.72;;;2.72;48.57
70841;BME280;58465;51.534;9.934;2023-02-28T06:44:33;101386.34;;;2.81;48.31
70841;BME280;58465;51.534;9.934;2023-02-28T06:47:03;101392.09;;;2.96;48.19
70841;BME280;58465;51.534;9.934;2023-02-28T06:49:29;101389.72;;;3.06;47.80
70841;BME280;58465;51.534;9.934;2023-02-28T06:51:55;101402.97;;;3.07;47.71
70841;BME280;58465;51.534;9.934;2023-02-28T06:54:20;101396.69;;;3.04;47.57
70841;BME280;58465;51.534;9.934;2023-02-28T06:56:46;101404.78;;;3.10;47.79
70841;BME280;58465;51.534;9.934;2023-02-28T06:59:12;101408.38;;;3.12;47.67
70841;BME280;58465;51.534;9.934;2023-02-28T07:01:37;101404.16;;;3.17;47.38
70841;BME280;58465;51.534;9.934;2023-02-28T07:04:04;101406.84;;;3.20;47.66
70841;BME280;58465;51.534;9.934;2023-02-28T07:06:30;101411.28;;;3.21;47.60
70841;BME280;58465;51.534;9.934;2023-02-28T07:08:55;101408.53;;;3.18;47.20
70841;BME280;58465;51.534;9.934;2023-02-28T07:11:22;101413.25;;;3.28;47.49
70841;BME280;58465;51.534;9.934;2023-02-28T07:13:49;101417.97;;;3.40;47.06
70841;BME280;58465;51.534;9.934;2023-02-28T07:16:15;101412.00;;;3.45;46.63
70841;BME280;58465;51.534;9.934;2023-02-28T07:18:41;101415.91;;;3.59;46.52
70841;BME280;58465;51.534;9.934;2023-02-28T07:21:08;101405.75;;;3.75;46.56
70841;BME280;58465;51.534;9.934;2023-02-28T07:23:34;101403.19;;;3.78;46.06
70841;BME280;58465;51.534;9.934;2023-02-28T07:26:00;101410.22;;;3.77;45.68
70841;BME280;58465;51.534;9.934;2023-02-28T07:28:26;101411.09;;;3.45;45.65
70841;BME280;58465;51.534;9.934;2023-02-28T07:30:51;101413.28;;;3.61;45.78
70841;BME280;58465;51.534;9.934;2023-02-28T07:33:16;101414.59;;;3.77;45.92
70841;BME280;58465;51.534;9.934;2023-02-28T07:35:42;101410.22;;;3.77;45.97
70841;BME280;58465;51.534;9.934;2023-02-28T07:38:07;101411.94;;;3.77;45.74
70841;BME280;58465;51.534;9.934;2023-02-28T07:40:34;101411.84;;;3.72;46.29
70841;BME280;58465;51.534;9.934;2023-02-28T07:43:00;101424.06;;;3.68;45.78
70841;BME280;58465;51.534;9.934;2023-02-28T07:45:27;101415.13;;;3.63;45.98
70841;BME280;58465;51.534;9.934;2023-02-28T07:47:53;101417.63;;;3.59;46.45
70841;BME280;58465;51.534;9.934;2023-02-28T07:50:19;101423.38;;;3.76;46.13
70841;BME280;58465;51.534;9.934;2023-02-28T07:52:45;101414.84;;;3.86;46.13
70841;BME280;58465;51.534;9.934;2023-02-28T07:55:10;101416.69;;;3.88;46.24
70841;BME280;58465;51.534;9.934;2023-02-28T07:57:36;101419.41;;;3.91;45.73
70841;BME280;58465;51.534;9.934;2023-02-28T08:00:03;101423.47;;;4.12;45.70
70841;BME280;58465;51.534;9.934;2023-02-28T08:02:30;101414.06;;;4.23;45.33
70841;BME280;58465;51.534;9.934;2023-02-28T08:04:55;101416.03;;;4.33;44.92
70841;BME280;58465;51.534;9.934;2023-02-28T08:07:21;101419.56;;;4.32;45.32
70841;BME280;58465;51.534;9.934;2023-02-28T08:09:46;101419.34;;;4.24;44.62
70841;BME280;58465;51.534;9.934;2023-02-28T08:12:11;101415.13;;;4.31;44.80
70841;BME280;58465;51.534;9.934;2023-02-28T08:14:37;101416.13;;;4.36;44.59
70841;BME280;58465;51.534;9.934;2023-02-28T08:17:03;101416.44;;;4.48;44.44
70841;BME280;58465;51.534;9.934;2023-02-28T08:19:29;101410.25;;;4.47;44.04
70841;BME280;58465;51.534;9.934;2023-02-28T08:21:55;101410.19;;;4.46;44.26
70841;BME280;58465;51.534;9.934;2023-02-28T08:24:21;101413.03;;;4.54;44.11
70841;BME280;58465;51.534;9.934;2023-02-28T08:26:46;101407.47;;;4.41;43.05
70841;BME280;58465;51.534;9.934;2023-02-28T08:29:11;101402.72;;;4.28;43.13
70841;BME280;58465;51.534;9.934;2023-02-28T08:31:36;101411.88;;;4.42;43.40
70841;BME280;58465;51.534;9.934;2023-02-28T08:34:06;101411.28;;;4.18;42.81
70841;BME280;58465;51.534;9.934;2023-02-28T08:36:32;101416.16;;;4.37;42.71
70841;BME280;58465;51.534;9.934;2023-02-28T08:38:57;101407.81;;;4.21;42.58
70841;BME280;58465;51.534;9.934;2023-02-28T08:41:23;101412.53;;;4.32;42.55
70841;BME280;58465;51.534;9.934;2023-02-28T08:43:48;101403.06;;;4.43;42.26
70841;BME280;58465;51.534;9.934;2023-02-28T08:46:13;101410.72;;;4.67;41.76
70841;BME280;58465;51.534;9.934;2023-02-28T08:48:39;101407.69;;;3.82;41.76
70841;BME280;58465;51.534;9.934;2023-02-28T08:51:10;101411.16;;;4.14;41.71
70841;BME280;58465;51.534;9.934;2023-02-28T08:53:36;101416.69;;;4.23;41.24
70841;BME280;58465;51.534;9.934;2023-02-28T08:56:07;101415.84;;;4.60;41.48
70841;BME280;58465;51.534;9.934;2023-02-28T08:58:34;101418.03;;;4.41;41.36
70841;BME280;58465;51.534;9.934;2023-02-28T09:01:00;101421.69;;;4.46;40.28
70841;BME280;58465;51.534;9.934;2023-02-28T09:03:26;101424.34;;;4.85;40.11
70841;BME280;58465;51.534;9.934;2023-02-28T09:05:54;101413.25;;;5.02;40.18
70841;BME280;58465;51.534;9.934;2023-02-28T09:08:20;101422.31;;;5.13;40.33
70841;BME280;58465;51.534;9.934;2023-02-28T09:10:45;101427.13;;;5.32;40.09
70841;BME280;58465;51.534;9.934;2023-02-28T09:13:10;101418.66;;;5.06;39.42
70841;BME280;58465;51.534;9.934;2023-02-28T09:15:39;101422.03;;;5.01;40.35
70841;BME280;58465;51.534;9.934;2023-02-28T09:18:04;101422.69;;;5.31;39.96
70841;BME280;58465;51.534;9.934;2023-02-28T09:20:29;101423.25;;;5.57;39.88
70841;BME280;58465;51.534;9.934;2023-02-28T09:22:55;101424.59;;;5.37;38.97
70841;BME280;58465;51.534;9.934;2023-02-28T09:25:20;101407.34;;;5.57;38.89
70841;BME280;58465;51.534;9.934;2023-02-28T09:27:45;101408.91;;;5.47;38.97
70841;BME280;58465;51.534;9.934;2023-02-28T09:30:12;101411.56;;;5.47;39.13
70841;BME280;58465;51.534;9.934;2023-02-28T09:32:37;101418.63;;;5.47;39.36
70841;BME280;58465;51.534;9.934;2023-02-28T09:35:03;101406.97;;;4.58;39.49
70841;BME280;58465;51.534;9.934;2023-02-28T09:37:28;101418.91;;;4.40;39.29
70841;BME280;58465;51.534;9.934;2023-02-28T09:39:54;101417.41;;;4.17;39.47
70841;BME280;58465;51.534;9.934;2023-02-28T09:42:32;101421.53;;;4.40;39.45
70841;BME280;58465;51.534;9.934;2023-02-28T09:45:00;101422.84;;;4.23;39.74
70841;BME280;58465;51.534;9.934;2023-02-28T09:47:30;101417.66;;;4.26;39.40
70841;BME280;58465;51.534;9.934;2023-02-28T09:50:17;101424.13;;;4.03;39.73
70841;BME280;58465;51.534;9.934;2023-02-28T09:52:49;101423.56;;;4.51;38.93
70841;BME280;58465;51.534;9.934;2023-02-28T09:57:41;101433.06;;;5.19;37.36
70841;BME280;58465;51.534;9.934;2023-02-28T10:00:30;101433.91;;;5.62;36.61
70841;BME280;58465;51.534;9.934;2023-02-28T10:03:26;101434.19;;;5.75;35.93
70841;BME280;58465;51.534;9.934;2023-02-28T10:05:59;101439.03;;;5.52;35.97
70841;BME280;58465;51.534;9.934;2023-02-28T10:08:38;101434.25;;;5.35;36.05
70841;BME280;58465;51.534;9.934;2023-02-28T10:11:10;101440.66;;;5.44;36.29
70841;BME280;58465;51.534;9.934;2023-02-28T10:13:52;101432.41;;;5.74;35.85
70841;BME280;58465;51.534;9.934;2023-02-28T10:16:22;101434.19;;;5.32;36.40
70841;BME280;58465;51.534;9.934;2023-02-28T10:19:19;101429.50;;;4.78;36.67
70841;BME280;58465;51.534;9.934;2023-02-28T10:24:45;101426.97;;;5.68;35.75
70841;BME280;58465;51.534;9.934;2023-02-28T10:27:17;101430.22;;;5.53;35.85
70841;BME280;58465;51.534;9.934;2023-02-28T10:29:46;101427.25;;;5.37;36.36
70841;BME280;58465;51.534;9.934;2023-02-28T10:32:16;101423.38;;;5.65;36.19
70841;BME280;58465;51.534;9.934;2023-02-28T10:34:42;101426.56;;;5.90;35.41
70841;BME280;58465;51.534;9.934;2023-02-28T10:37:07;101426.06;;;5.22;36.47
70841;BME280;58465;51.534;9.934;2023-02-28T10:39:39;101410.34;;;4.91;36.83
70841;BME280;58465;51.534;9.934;2023-02-28T10:42:19;101418.69;;;5.08;36.88
70841;BME280;58465;51.534;9.934;2023-02-28T10:44:45;101418.97;;;5.21;36.80
70841;BME280;58465;51.534;9.934;2023-02-28T10:47:17;101414.53;;;5.19;36.63
70841;BME280;58465;51.534;9.934;2023-02-28T10:49:49;101404.66;;;5.13;36.56
70841;BME280;58465;51.534;9.934;2023-02-28T10:52:32;101404.13;;;5.30;37.14
70841;BME280;58465;51.534;9.934;2023-02-28T10:55:18;101408.28;;;5.17;36.95
70841;BME280;58465;51.534;9.934;2023-02-28T10:57:44;101402.31;;;5.27;37.19
70841;BME280;58465;51.534;9.934;2023-02-28T11:00:36;101407.34;;;5.58;36.62
70841;BME280;58465;51.534;9.934;2023-02-28T11:03:01;101406.22;;;5.91;36.31
70841;BME280;58465;51.534;9.934;2023-02-28T11:05:32;101405.34;;;5.45;36.65
70841;BME280;58465;51.534;9.934;2023-02-28T11:08:13;101398.09;;;5.37;36.82
70841;BME280;58465;51.534;9.934;2023-02-28T11:10:39;101400.72;;;5.35;37.05
70841;BME280;58465;51.534;9.934;2023-02-28T11:13:05;101397.09;;;5.75;36.80
70841;BME280;58465;51.534;9.934;2023-02-28T11:15:32;101400.69;;;5.34;37.02
70841;BME280;58465;51.534;9.934;2023-02-28T11:18:21;101386.19;;;5.16;37.34
70841;BME280;58465;51.534;9.934;2023-02-28T11:20:49;101390.16;;;5.38;37.48
70841;BME280;58465;51.534;9.934;2023-02-28T11:23:16;101379.03;;;5.56;36.97
70841;BME280;58465;51.534;9.934;2023-02-28T11:25:47;101367.16;;;5.36;36.72
70841;BME280;58465;51.534;9.934;2023-02-28T11:28:35;101390.69;;;5.20;37.85
70841;BME280;58465;51.534;9.934;2023-02-28T11:33:44;101385.69;;;5.34;37.43
70841;BME280;58465;51.534;9.934;2023-02-28T11:36:13;101388.16;;;5.72;37.12
70841;BME280;58465;51.534;9.934;2023-02-28T11:38:39;101352.19;;;5.84;36.64
70841;BME280;58465;51.534;9.934;2023-02-28T11:41:17;101363.94;;;5.99;36.40
70841;BME280;58465;51.534;9.934;2023-02-28T11:44:03;101372.03;;;6.08;36.52
70841;BME280;58465;51.534;9.934;2023-02-28T11:46:40;101364.34;;;6.23;36.44
70841;BME280;58465;51.534;9.934;2023-02-28T11:49:31;101362.75;;;6.32;36.11
70841;BME280;58465;51.534;9.934;2023-02-28T11:52:06;101366.63;;;7.22;34.84
70841;BME280;58465;51.534;9.934;2023-02-28T11:54:48;101356.28;;;7.47;33.68
70841;BME280;58465;51.534;9.934;2023-02-28T11:57:39;101363.22;;;8.23;33.31
70841;BME280;58465;51.534;9.934;2023-02-28T12:00:19;101354.25;;;9.80;31.73
70841;BME280;58465;51.534;9.934;2023-02-28T12:03:03;101363.81;;;9.13;31.08
70841;BME280;58465;51.534;9.934;2023-02-28T12:05:44;101350.69;;;10.16;30.29
70841;BME280;58465;51.534;9.934;2023-02-28T12:08:22;101347.06;;;10.78;28.41
70841;BME280;58465;51.534;9.934;2023-02-28T12:11:01;101347.06;;;10.81;29.08
70841;BME280;58465;51.534;9.934;2023-02-28T12:13:41;101325.63;;;10.98;28.40
70841;BME280;58465;51.534;9.934;2023-02-28T12:16:28;101334.31;;;11.44;28.48
70841;BME280;58465;51.534;9.934;2023-02-28T12:19:17;101327.53;;;10.64;28.46
70841;BME280;58465;51.534;9.934;2023-02-28T12:27:21;101326.69;;;10.28;28.09
70841;BME280;58465;51.534;9.934;2023-02-28T12:29:58;101318.63;;;9.77;29.59
70841;BME280;58465;51.534;9.934;2023-02-28T12:32:49;101321.34;;;10.37;29.02
70841;BME280;58465;51.534;9.934;2023-02-28T12:35:23;101316.81;;;10.59;28.86
70841;BME280;58465;51.534;9.934;2023-02-28T12:38:05;101321.25;;;10.74;28.49
70841;BME280;58465;51.534;9.934;2023-02-28T12:40:56;101315.69;;;11.27;27.55
70841;BME280;58465;51.534;9.934;2023-02-28T12:43:30;101318.66;;;9.80;29.43
70841;BME280;58465;51.534;9.934;2023-02-28T12:46:05;101320.00;;;8.54;31.60
70841;BME280;58465;51.534;9.934;2023-02-28T12:48:43;101313.47;;;7.21;33.58
70841;BME280;58465;51.534;9.934;2023-02-28T12:51:10;101309.03;;;7.21;33.82
70841;BME280;58465;51.534;9.934;2023-02-28T12:59:36;101313.63;;;6.63;35.56
70841;BME280;58465;51.534;9.934;2023-02-28T13:10:22;101306.22;;;6.40;36.04
70841;BME280;58465;51.534;9.934;2023-02-28T13:12:50;101299.38;;;5.98;36.54
70841;BME280;58465;51.534;9.934;2023-02-28T13:15:22;101305.66;;;6.03;37.18
70841;BME280;58465;51.534;9.934;2023-02-28T13:17:55;101300.00;;;5.83;37.03
70841;BME280;58465;51.534;9.934;2023-02-28T13:20:24;101292.88;;;5.81;36.82
70841;BME280;58465;51.534;9.934;2023-02-28T13:22:52;101295.03;;;6.02;37.09
70841;BME280;58465;51.534;9.934;2023-02-28T13:25:49;101294.38;;;6.15;37.03
70841;BME280;58465;51.534;9.934;2023-02-28T13:28:12;101292.59;;;6.17;37.22
70841;BME280;58465;51.534;9.934;2023-02-28T13:33:35;101290.50;;;5.94;36.99
70841;BME280;58465;51.534;9.934;2023-02-28T13:36:28;101285.31;;;6.02;37.19
70841;BME280;58465;51.534;9.934;2023-02-28T13:38:57;101285.44;;;6.10;37.22
70841;BME280;58465;51.534;9.934;2023-02-28T13:44:10;101280.22;;;6.17;37.23
70841;BME280;58465;51.534;9.934;2023-02-28T13:57:57;101259.25;;;5.78;38.23
70841;BME280;58465;51.534;9.934;2023-02-28T14:03:44;101260.13;;;5.77;38.13
70841;BME280;58465;51.534;9.934;2023-02-28T14:06:33;101255.03;;;5.88;38.24
70841;BME280;58465;51.534;9.934;2023-02-28T14:09:06;101253.91;;;5.74;38.49
70841;BME280;58465;51.534;9.934;2023-02-28T14:11:42;101247.84;;;5.82;38.23
70841;BME280;58465;51.534;9.934;2023-02-28T14:14:09;101248.69;;;5.80;38.78
70841;BME280;58465;51.534;9.934;2023-02-28T14:16:44;101243.56;;;5.89;38.77
70841;BME280;58465;51.534;9.934;2023-02-28T14:19:16;101241.13;;;6.03;38.25
70841;BME280;58465;51.534;9.934;2023-02-28T14:22:32;101241.66;;;5.82;38.65
70841;BME280;58465;51.534;9.934;2023-02-28T14:26:19;101240.75;;;5.81;38.76
70841;BME280;58465;51.534;9.934;2023-02-28T14:28:51;101239.78;;;5.75;38.89